Time;durP1;ratioP1;P1;durP2;ratioP2;P2;SDS_P1;SDS_P2;PMS_P1;PMS_P2;Temp;Humidity;BMP_temperature;BMP_pressure;BME280_temperature;BME280_humidity;BME280_pressure;Samples;Min_cycle;Max_cycle;Signal;HPM_P1;HPM_P2
2022/02/14 00:02:00;;;;;;;0.10;0.10;;;;;;;;;;4147350;28;20069;-56
2022/02/14 00:04:01;;;;;;;0.10;0.10;;;;;;;;;;4147793;28;20387;-51
2022/02/14 00:06:03;;;;;;;0.20;0.20;;;;;;;;;;4130410;28;20105;-55
2022/02/14 00:08:04;;;;;;;1.10;0.20;;;;;;;;;;4146551;28;20492;-54
2022/02/14 00:10:06;;;;;;;0.40;0.30;;;;;;;;;;4147870;28;20062;-51
2022/02/14 00:12:07;;;;;;;0.20;0.20;;;;;;;;;;4147604;28;20417;-52
2022/02/14 00:14:08;;;;;;;0.10;0.10;;;;;;;;;;4147645;28;20061;-54
2022/02/14 00:16:09;;;;;;;0.17;0.17;;;;;;;;;;4146582;28;20104;-51
2022/02/14 00:18:11;;;;;;;0.13;0.10;;;;;;;;;;4147387;28;20054;-51
2022/02/14 00:20:12;;;;;;;0.40;0.20;;;;;;;;;;4147551;28;20116;-50
2022/02/14 00:22:14;;;;;;;0.17;0.17;;;;;;;;;;4147460;28;20108;-55
2022/02/14 00:24:15;;;;;;;0.30;0.20;;;;;;;;;;4147603;28;20394;-53
2022/02/14 00:26:16;;;;;;;0.10;0.10;;;;;;;;;;4147455;28;20577;-53
2022/02/14 00:28:17;;;;;;;0.10;0.10;;;;;;;;;;4147352;28;20068;-54
2022/02/14 00:30:18;;;;;;;0.10;0.10;;;;;;;;;;4147239;28;20056;-53
2022/02/14 00:32:20;;;;;;;0.30;0.30;;;;;;;;;;4147010;28;20057;-53
2022/02/14 00:34:21;;;;;;;0.32;0.10;;;;;;;;;;4147455;28;20104;-52
2022/02/14 00:36:23;;;;;;;0.35;0.20;;;;;;;;;;4133705;28;20054;-55
2022/02/14 00:38:25;;;;;;;0.17;0.10;;;;;;;;;;4131057;28;20060;-52
2022/02/14 00:40:26;;;;;;;0.50;0.22;;;;;;;;;;4131094;28;20058;-54
2022/02/14 00:42:30;;;;;;;0.10;0.10;;;;;;;;;;4145555;28;20480;-54
2022/02/14 00:44:31;;;;;;;0.20;0.20;;;;;;;;;;4131085;28;20058;-52
2022/02/14 00:46:32;;;;;;;0.10;0.10;;;;;;;;;;4130732;28;20070;-50
2022/02/14 00:48:33;;;;;;;0.10;0.10;;;;;;;;;;4131136;28;20050;-54
2022/02/14 00:50:34;;;;;;;0.28;0.13;;;;;;;;;;4129723;28;20062;-54
2022/02/14 00:52:35;;;;;;;0.40;0.25;;;;;;;;;;4130693;28;20637;-54
2022/02/14 00:54:36;;;;;;;0.13;0.10;;;;;;;;;;4130770;28;20100;-54
2022/02/14 00:56:38;;;;;;;0.30;0.30;;;;;;;;;;4130657;28;20394;-55
2022/02/14 00:58:39;;;;;;;0.13;0.10;;;;;;;;;;4131084;28;20077;-54
2022/02/14 01:00:40;;;;;;;0.10;0.10;;;;;;;;;;4130642;28;20565;-52
2022/02/14 01:02:41;;;;;;;0.30;0.30;;;;;;;;;;4130300;28;20116;-54
2022/02/14 01:04:42;;;;;;;0.17;0.17;;;;;;;;;;4130991;28;20080;-52
2022/02/14 01:06:43;;;;;;;0.40;0.20;;;;;;;;;;4130702;28;20109;-53
2022/02/14 01:08:44;;;;;;;0.10;0.10;;;;;;;;;;4130676;28;20054;-54
2022/02/14 01:10:45;;;;;;;0.20;0.20;;;;;;;;;;4145573;28;20255;-54
2022/02/14 01:12:46;;;;;;;0.13;0.10;;;;;;;;;;4129514;28;20104;-54
2022/02/14 01:14:47;;;;;;;0.20;0.20;;;;;;;;;;4130520;28;20062;-55
2022/02/14 01:16:49;;;;;;;0.13;0.10;;;;;;;;;;4129682;28;20148;-49
2022/02/14 01:18:50;;;;;;;0.10;0.10;;;;;;;;;;4129122;28;20097;-51
2022/02/14 01:20:51;;;;;;;0.22;0.20;;;;;;;;;;4130420;28;20105;-54
2022/02/14 01:22:53;;;;;;;0.10;0.10;;;;;;;;;;4130329;28;20097;-54
2022/02/14 01:24:54;;;;;;;0.20;0.20;;;;;;;;;;4130518;28;20085;-55
2022/02/14 01:26:56;;;;;;;0.10;0.10;;;;;;;;;;4145658;28;20061;-53
2022/02/14 01:28:57;;;;;;;0.10;0.10;;;;;;;;;;4146539;28;20050;-55
2022/02/14 01:30:58;;;;;;;0.47;0.30;;;;;;;;;;4146636;28;20053;-54
2022/02/14 01:33:00;;;;;;;0.10;0.10;;;;;;;;;;4146120;28;20394;-53
2022/02/14 01:35:04;;;;;;;0.20;0.10;;;;;;;;;;4145031;28;20497;-54
2022/02/14 01:37:05;;;;;;;0.15;0.10;;;;;;;;;;4130371;28;20061;-53
2022/02/14 01:39:07;;;;;;;0.28;0.20;;;;;;;;;;4113130;28;20387;-50
2022/02/14 01:41:08;;;;;;;0.20;0.20;;;;;;;;;;4130386;28;20340;-54
2022/02/14 01:43:11;;;;;;;0.28;0.10;;;;;;;;;;4130072;28;20054;-55
2022/02/14 01:45:12;;;;;;;0.13;0.13;;;;;;;;;;4130290;28;20101;-54
2022/02/14 01:47:24;;;;;;;0.20;0.20;;;;;;;;;;4129726;28;20491;-52
2022/02/14 01:49:25;;;;;;;0.20;0.20;;;;;;;;;;4130458;28;20051;-51
2022/02/14 01:51:26;;;;;;;0.10;0.10;;;;;;;;;;4130151;28;20058;-52
2022/02/14 01:53:27;;;;;;;0.40;0.20;;;;;;;;;;4096817;29;20487;-56
2022/02/14 01:55:29;;;;;;;0.43;0.20;;;;;;;;;;4130422;28;20058;-55
2022/02/14 01:57:30;;;;;;;0.20;0.20;;;;;;;;;;4128790;28;20062;-52
2022/02/14 01:59:33;;;;;;;0.10;0.10;;;;;;;;;;4130339;28;20051;-51
2022/02/14 02:01:34;;;;;;;0.30;0.13;;;;;;;;;;4112450;28;20051;-52
2022/02/14 02:03:35;;;;;;;0.20;0.20;;;;;;;;;;4130191;28;20560;-53
2022/02/14 02:05:36;;;;;;;0.10;0.10;;;;;;;;;;4130517;28;20144;-55
2022/02/14 02:07:39;;;;;;;0.10;0.10;;;;;;;;;;4129868;28;20494;-56
2022/02/14 02:09:43;;;;;;;0.10;0.10;;;;;;;;;;4112619;28;20491;-53
2022/02/14 02:14:03;;;;;;;0.32;0.25;;;;;;;;;;4130361;28;20054;-52
2022/02/14 02:16:04;;;;;;;0.20;0.17;;;;;;;;;;4130188;28;20058;-56
2022/02/14 02:18:06;;;;;;;0.30;0.20;;;;;;;;;;4129915;28;20298;-53
2022/02/14 02:20:09;;;;;;;0.32;0.20;;;;;;;;;;4130214;28;20054;-54
2022/02/14 02:22:10;;;;;;;0.10;0.10;;;;;;;;;;4129877;28;20050;-55
2022/02/14 02:24:14;;;;;;;0.10;0.10;;;;;;;;;;4130060;28;20561;-55
2022/02/14 02:26:16;;;;;;;0.30;0.17;;;;;;;;;;4129797;28;20058;-54
2022/02/14 02:28:17;;;;;;;0.13;0.10;;;;;;;;;;4129633;28;20066;-55
2022/02/14 02:30:20;;;;;;;0.10;0.10;;;;;;;;;;4130178;28;20133;-55
2022/02/14 02:32:22;;;;;;;0.10;0.10;;;;;;;;;;4131773;28;20112;-55
2022/02/14 02:34:23;;;;;;;0.20;0.20;;;;;;;;;;4132999;28;20109;-55
2022/02/14 02:36:24;;;;;;;0.17;0.10;;;;;;;;;;4133107;28;20419;-50
2022/02/14 02:38:26;;;;;;;0.20;0.20;;;;;;;;;;4132822;28;20058;-49
2022/02/14 02:40:28;;;;;;;0.15;0.10;;;;;;;;;;4132842;28;20062;-53
2022/02/14 02:42:29;;;;;;;0.45;0.22;;;;;;;;;;4132678;28;20117;-51
2022/02/14 02:44:35;;;;;;;0.15;0.10;;;;;;;;;;4133030;28;20066;-51
2022/02/14 02:46:37;;;;;;;0.10;0.10;;;;;;;;;;4132273;28;20549;-53
2022/02/14 02:48:38;;;;;;;0.10;0.10;;;;;;;;;;4133007;28;20054;-49
2022/02/14 02:51:01;;;;;;;0.35;0.20;;;;;;;;;;4132771;28;20101;-50
2022/02/14 02:53:00;;;;;;;0.30;0.20;;;;;;;;;;4132471;28;20494;-51
2022/02/14 02:55:02;;;;;;;0.20;0.10;;;;;;;;;;4132597;28;20113;-51
2022/02/14 02:57:04;;;;;;;0.10;0.10;;;;;;;;;;4132643;28;20116;-54
2022/02/14 02:59:05;;;;;;;0.13;0.13;;;;;;;;;;4132680;28;20109;-52
2022/02/14 03:01:06;;;;;;;0.13;0.10;;;;;;;;;;4132770;28;20066;-54
2022/02/14 03:03:08;;;;;;;0.30;0.30;;;;;;;;;;4130769;28;20054;-55
2022/02/14 03:05:09;;;;;;;0.22;0.10;;;;;;;;;;4132438;28;20054;-50
2022/02/14 03:07:11;;;;;;;0.28;0.20;;;;;;;;;;4132674;28;20105;-50
2022/02/14 03:09:14;;;;;;;0.10;0.10;;;;;;;;;;4132463;28;20082;-48
2022/02/14 03:11:16;;;;;;;0.10;0.10;;;;;;;;;;4132308;28;20062;-50
2022/02/14 03:13:17;;;;;;;0.10;0.10;;;;;;;;;;4132512;28;20069;-53
2022/02/14 03:15:18;;;;;;;0.10;0.10;;;;;;;;;;4131049;28;20415;-52
2022/02/14 03:17:21;;;;;;;0.10;0.10;;;;;;;;;;4132205;28;20104;-56
2022/02/14 03:19:22;;;;;;;0.10;0.10;;;;;;;;;;4132624;28;20108;-49
2022/02/14 03:21:23;;;;;;;0.17;0.17;;;;;;;;;;4132344;28;20120;-50
2022/02/14 03:23:24;;;;;;;0.13;0.13;;;;;;;;;;4132392;28;20104;-51
2022/02/14 03:25:25;;;;;;;0.10;0.10;;;;;;;;;;4131848;28;20066;-52
2022/02/14 03:27:26;;;;;;;0.17;0.17;;;;;;;;;;4132478;28;20173;-52
2022/02/14 03:29:28;;;;;;;0.17;0.17;;;;;;;;;;4132186;28;20125;-49
2022/02/14 03:31:29;;;;;;;0.15;0.15;;;;;;;;;;4131979;28;20066;-56
2022/02/14 03:33:30;;;;;;;0.10;0.10;;;;;;;;;;4132007;28;20104;-49
2022/02/14 03:35:31;;;;;;;0.10;0.10;;;;;;;;;;4131952;28;20128;-54
2022/02/14 03:37:32;;;;;;;0.05;0.03;;;;;;;;;;4131949;28;20454;-49
2022/02/14 03:39:33;;;;;;;0.10;0.10;;;;;;;;;;4132041;28;20050;-54
2022/02/14 03:41:34;;;;;;;0.10;0.10;;;;;;;;;;4131846;28;20499;-51
2022/02/14 03:43:36;;;;;;;0.25;0.20;;;;;;;;;;4131814;28;20411;-51
2022/02/14 03:45:40;;;;;;;0.10;0.10;;;;;;;;;;4132189;28;20058;-56
2022/02/14 03:47:41;;;;;;;0.10;0.10;;;;;;;;;;4131706;28;20054;-50
2022/02/14 03:49:43;;;;;;;0.10;0.10;;;;;;;;;;4131932;28;20054;-55
2022/02/14 03:51:44;;;;;;;0.10;0.10;;;;;;;;;;4131913;28;20054;-50
2022/02/14 03:53:45;;;;;;;0.10;0.10;;;;;;;;;;4114547;28;20055;-56
2022/02/14 03:55:47;;;;;;;0.10;0.10;;;;;;;;;;4131788;28;20101;-53
2022/02/14 03:57:50;;;;;;;0.20;0.20;;;;;;;;;;4131584;28;20066;-51
2022/02/14 03:59:51;;;;;;;0.20;0.20;;;;;;;;;;4131754;28;20126;-53
2022/02/14 04:01:52;;;;;;;0.20;0.20;;;;;;;;;;4131535;28;20062;-50
2022/02/14 04:03:54;;;;;;;0.28;0.20;;;;;;;;;;4131780;28;20066;-54
2022/02/14 04:05:55;;;;;;;0.10;0.10;;;;;;;;;;4131702;28;20558;-52
2022/02/14 04:07:58;;;;;;;0.15;0.15;;;;;;;;;;4129989;28;20054;-49
2022/02/14 04:09:59;;;;;;;0.10;0.10;;;;;;;;;;4131528;28;20105;-55
2022/02/14 04:12:00;;;;;;;0.20;0.10;;;;;;;;;;4131412;28;20058;-54
2022/02/14 04:14:01;;;;;;;0.28;0.20;;;;;;;;;;4131518;28;20054;-55
2022/02/14 04:16:02;;;;;;;0.10;0.10;;;;;;;;;;4131464;28;20118;-52
2022/02/14 04:18:03;;;;;;;0.10;0.10;;;;;;;;;;4113697;28;20055;-55
2022/02/14 04:20:05;;;;;;;0.20;0.20;;;;;;;;;;4131688;28;20054;-50
2022/02/14 04:22:06;;;;;;;0.10;0.10;;;;;;;;;;4131137;28;20128;-52
2022/02/14 04:24:07;;;;;;;0.20;0.20;;;;;;;;;;4131675;28;20069;-53
2022/02/14 04:26:08;;;;;;;0.10;0.10;;;;;;;;;;4131228;28;20395;-50
2022/02/14 04:28:10;;;;;;;0.10;0.10;;;;;;;;;;4131334;28;20054;-55
2022/02/14 04:30:12;;;;;;;0.20;0.20;;;;;;;;;;4131204;28;20116;-50
2022/02/14 04:32:13;;;;;;;0.10;0.10;;;;;;;;;;4130952;28;20108;-55
2022/02/14 04:34:16;;;;;;;0.10;0.10;;;;;;;;;;4131369;28;20054;-50
2022/02/14 04:36:17;;;;;;;0.20;0.20;;;;;;;;;;4131053;28;20073;-52
2022/02/14 04:38:18;;;;;;;0.15;0.10;;;;;;;;;;4131222;28;20066;-56
2022/02/14 04:40:19;;;;;;;0.20;0.15;;;;;;;;;;4131147;28;20062;-49
2022/02/14 04:42:20;;;;;;;0.10;0.10;;;;;;;;;;4130888;28;20058;-55
2022/02/14 04:44:21;;;;;;;0.10;0.10;;;;;;;;;;4131082;28;20054;-50
2022/02/14 04:46:22;;;;;;;0.15;0.10;;;;;;;;;;4131284;28;20097;-53
2022/02/14 04:48:23;;;;;;;0.20;0.20;;;;;;;;;;4130421;28;20086;-52
2022/02/14 04:50:25;;;;;;;0.10;0.10;;;;;;;;;;4130695;28;20069;-51
2022/02/14 04:52:26;;;;;;;0.17;0.17;;;;;;;;;;4130533;28;20105;-55
2022/02/14 04:54:27;;;;;;;0.10;0.10;;;;;;;;;;4130540;28;20058;-49
2022/02/14 04:56:30;;;;;;;0.70;0.30;;;;;;;;;;4130749;28;20430;-53
2022/02/14 04:58:31;;;;;;;0.20;0.20;;;;;;;;;;4130930;28;20073;-52
2022/02/14 05:00:32;;;;;;;0.40;0.30;;;;;;;;;;4130835;28;20336;-51
2022/02/14 05:02:33;;;;;;;0.10;0.10;;;;;;;;;;4128906;28;20058;-53
2022/02/14 05:04:35;;;;;;;0.10;0.10;;;;;;;;;;4130665;28;20058;-55
2022/02/14 05:06:36;;;;;;;0.10;0.10;;;;;;;;;;4130897;28;20080;-54
2022/02/14 05:08:39;;;;;;;0.30;0.10;;;;;;;;;;4130589;28;20160;-51
2022/02/14 05:10:40;;;;;;;0.13;0.13;;;;;;;;;;4130598;28;20153;-56
2022/02/14 05:12:41;;;;;;;0.17;0.17;;;;;;;;;;4130392;28;20050;-51
2022/02/14 05:14:42;;;;;;;0.15;0.10;;;;;;;;;;4130646;28;20054;-56
2022/02/14 05:16:43;;;;;;;0.20;0.10;;;;;;;;;;4130072;28;20081;-52
2022/02/14 05:18:44;;;;;;;0.10;0.10;;;;;;;;;;4130864;28;20079;-56
2022/02/14 05:20:46;;;;;;;0.40;0.40;;;;;;;;;;4130254;28;20058;-54
2022/02/14 05:22:47;;;;;;;0.10;0.10;;;;;;;;;;4130239;28;20160;-50
2022/02/14 05:24:48;;;;;;;0.10;0.10;;;;;;;;;;4130340;28;20109;-49
2022/02/14 05:26:49;;;;;;;0.10;0.10;;;;;;;;;;4127099;28;20091;-49
2022/02/14 05:28:54;;;;;;;0.17;0.10;;;;;;;;;;4146541;28;20104;-54
2022/02/14 05:30:55;;;;;;;0.10;0.10;;;;;;;;;;4145509;28;20081;-50
2022/02/14 05:32:57;;;;;;;0.35;0.20;;;;;;;;;;4146118;28;20472;-54
2022/02/14 05:34:58;;;;;;;0.40;0.10;;;;;;;;;;4145603;28;20058;-55
2022/02/14 05:36:59;;;;;;;0.30;0.30;;;;;;;;;;4130234;28;20062;-53
2022/02/14 05:39:00;;;;;;;0.10;0.10;;;;;;;;;;4130356;28;20458;-56
2022/02/14 05:41:01;;;;;;;0.20;0.20;;;;;;;;;;4130565;28;20121;-52
2022/02/14 05:43:02;;;;;;;0.47;0.30;;;;;;;;;;4130227;28;20058;-54
2022/02/14 05:45:04;;;;;;;0.28;0.20;;;;;;;;;;4120994;28;20121;-51
2022/02/14 05:47:05;;;;;;;0.40;0.30;;;;;;;;;;4126851;28;20112;-54
2022/02/14 05:49:06;;;;;;;0.30;0.30;;;;;;;;;;4132512;28;20050;-52
2022/02/14 05:51:08;;;;;;;0.30;0.30;;;;;;;;;;4123896;28;20717;-55
2022/02/14 05:53:09;;;;;;;0.47;0.28;;;;;;;;;;4125788;28;20050;-52
2022/02/14 05:55:11;;;;;;;0.40;0.32;;;;;;;;;;4127764;28;20065;-49
2022/02/14 05:57:12;;;;;;;0.20;0.17;;;;;;;;;;4108776;28;20058;-51
2022/02/14 05:59:12;;;;;;;0.30;0.30;;;;;;;;;;4127114;28;20121;-50
2022/02/14 06:01:14;;;;;;;0.40;0.40;;;;;;;;;;4127083;28;20066;-56
2022/02/14 06:03:15;;;;;;;0.30;0.30;;;;;;;;;;4126990;28;20109;-51
2022/02/14 06:05:16;;;;;;;0.40;0.40;;;;;;;;;;4127692;28;20066;-55
2022/02/14 06:07:18;;;;;;;0.55;0.40;;;;;;;;;;4129320;28;20498;-49
2022/02/14 06:09:19;;;;;;;0.85;0.38;;;;;;;;;;4130057;28;20130;-54
2022/02/14 06:11:21;;;;;;;1.67;0.30;;;;;;;;;;4131598;28;20070;-54
2022/02/14 06:13:23;;;;;;;0.60;0.40;;;;;;;;;;4130812;28;20513;-52
2022/02/14 06:15:24;;;;;;;0.75;0.30;;;;;;;;;;4129698;28;20101;-55
2022/02/14 06:17:25;;;;;;;0.50;0.30;;;;;;;;;;4130713;28;20109;-53
2022/02/14 06:19:26;;;;;;;1.10;0.47;;;;;;;;;;4131154;28;20411;-54
2022/02/14 06:21:27;;;;;;;0.30;0.30;;;;;;;;;;4131295;28;20069;-54
2022/02/14 06:23:28;;;;;;;0.85;0.52;;;;;;;;;;4131162;28;20454;-50
2022/02/14 06:25:29;;;;;;;0.73;0.45;;;;;;;;;;4130311;28;20066;-53
2022/02/14 06:27:30;;;;;;;1.25;0.68;;;;;;;;;;4126816;28;20124;-50
2022/02/14 06:29:31;;;;;;;1.13;0.60;;;;;;;;;;4132735;28;20108;-51
2022/02/14 06:31:33;;;;;;;0.95;0.38;;;;;;;;;;4130095;28;20090;-51
2022/02/14 06:33:35;;;;;;;0.32;0.30;;;;;;;;;;4132691;28;20069;-54
2022/02/14 06:35:36;;;;;;;0.80;0.50;;;;;;;;;;4130081;28;20120;-56
2022/02/14 06:37:37;;;;;;;1.80;0.40;;;;;;;;;;4128950;28;20640;-55
2022/02/14 06:39:38;;;;;;;1.02;0.40;;;;;;;;;;4128412;28;20077;-56
2022/02/14 06:41:39;;;;;;;0.40;0.40;;;;;;;;;;4131551;28;20447;-55
2022/02/14 06:43:40;;;;;;;0.90;0.68;;;;;;;;;;4127093;28;20513;-56
2022/02/14 06:45:41;;;;;;;0.73;0.30;;;;;;;;;;4111131;28;20515;-54
2022/02/14 06:47:43;;;;;;;0.82;0.40;;;;;;;;;;4127635;28;20069;-56
2022/02/14 06:49:45;;;;;;;0.40;0.38;;;;;;;;;;4124303;28;20114;-56
2022/02/14 06:51:46;;;;;;;0.63;0.50;;;;;;;;;;4110286;28;20171;-52
2022/02/14 06:53:47;;;;;;;2.00;0.40;;;;;;;;;;4101766;28;20070;-56
2022/02/14 06:55:48;;;;;;;1.65;0.50;;;;;;;;;;4125633;28;20054;-56
2022/02/14 06:57:49;;;;;;;0.55;0.50;;;;;;;;;;4129847;28;20054;-56
2022/02/14 06:59:50;;;;;;;0.55;0.55;;;;;;;;;;4123108;28;20057;-57
2022/02/14 07:01:51;;;;;;;0.57;0.40;;;;;;;;;;4125051;28;20093;-57
2022/02/14 07:03:52;;;;;;;0.68;0.47;;;;;;;;;;4118752;28;20050;-57
2022/02/14 07:05:54;;;;;;;0.52;0.47;;;;;;;;;;4123427;28;20112;-55
2022/02/14 07:07:56;;;;;;;0.50;0.40;;;;;;;;;;4121683;28;20066;-56
2022/02/14 07:09:57;;;;;;;0.60;0.40;;;;;;;;;;4123873;28;20135;-57
2022/02/14 07:11:58;;;;;;;0.95;0.50;;;;;;;;;;4127766;28;20054;-56
2022/02/14 07:14:00;;;;;;;0.73;0.40;;;;;;;;;;4125125;28;20101;-56
2022/02/14 07:16:01;;;;;;;1.33;0.50;;;;;;;;;;4122341;28;20407;-53
2022/02/14 07:18:03;;;;;;;2.67;0.70;;;;;;;;;;4108586;28;20117;-56
2022/02/14 07:20:05;;;;;;;0.98;0.60;;;;;;;;;;4123245;28;20054;-56
2022/02/14 07:22:06;;;;;;;1.27;0.30;;;;;;;;;;4122980;28;20062;-55
2022/02/14 07:24:08;;;;;;;2.97;0.82;;;;;;;;;;4121252;28;20489;-56
2022/02/14 07:26:10;;;;;;;0.57;0.50;;;;;;;;;;4068893;28;1526160;-52
2022/02/14 07:28:11;;;;;;;1.60;0.50;;;;;;;;;;4105253;28;20058;-56
2022/02/14 07:30:13;;;;;;;2.22;0.52;;;;;;;;;;4120678;28;20054;-57
2022/02/14 07:32:14;;;;;;;0.73;0.50;;;;;;;;;;4119328;28;20505;-57
2022/02/14 07:34:15;;;;;;;0.57;0.50;;;;;;;;;;4127624;28;20149;-58
2022/02/14 07:36:16;;;;;;;0.63;0.52;;;;;;;;;;4118997;28;20096;-57
2022/02/14 07:38:17;;;;;;;0.88;0.50;;;;;;;;;;4108500;28;20105;-57
2022/02/14 07:40:18;;;;;;;1.27;0.63;;;;;;;;;;4123947;28;20413;-54
2022/02/14 07:42:19;;;;;;;0.57;0.57;;;;;;;;;;4128206;28;20157;-59
2022/02/14 07:44:21;;;;;;;0.60;0.50;;;;;;;;;;4126733;28;20050;-54
2022/02/14 07:46:22;;;;;;;1.27;0.60;;;;;;;;;;4122959;28;20112;-57
2022/02/14 07:48:23;;;;;;;1.35;1.05;;;;;;;;;;4122357;28;20109;-56
2022/02/14 07:50:25;;;;;;;1.30;0.55;;;;;;;;;;4120077;28;20086;-58
2022/02/14 07:52:26;;;;;;;2.15;0.77;;;;;;;;;;4120323;28;20506;-55
2022/02/14 07:54:27;;;;;;;0.82;0.40;;;;;;;;;;4126093;28;20058;-59
2022/02/14 07:56:29;;;;;;;1.15;0.63;;;;;;;;;;4122486;28;20077;-57
2022/02/14 07:58:30;;;;;;;0.98;0.60;;;;;;;;;;4121969;28;20058;-57
2022/02/14 08:00:31;;;;;;;1.15;0.60;;;;;;;;;;4113769;28;20049;-59
2022/02/14 08:02:32;;;;;;;1.42;0.70;;;;;;;;;;4110862;28;20069;-58
2022/02/14 08:04:33;;;;;;;0.98;0.60;;;;;;;;;;4104497;28;20071;-57
2022/02/14 08:06:38;;;;;;;1.13;0.50;;;;;;;;;;4108422;28;21898;-56
2022/02/14 08:08:39;;;;;;;1.40;0.70;;;;;;;;;;4116209;28;20065;-55
2022/02/14 08:10:40;;;;;;;1.05;0.60;;;;;;;;;;4116405;28;20055;-56
2022/02/14 08:12:41;;;;;;;3.10;0.90;;;;;;;;;;4103720;28;20054;-58
2022/02/14 08:14:45;;;;;;;1.55;0.57;;;;;;;;;;4107686;28;20074;-56
2022/02/14 08:16:46;;;;;;;0.50;0.50;;;;;;;;;;4107475;28;20340;-54
2022/02/14 08:18:48;;;;;;;0.80;0.50;;;;;;;;;;4105636;28;20046;-55
2022/02/14 08:20:49;;;;;;;1.30;0.73;;;;;;;;;;4107186;28;20065;-55
2022/02/14 08:22:51;;;;;;;0.80;0.55;;;;;;;;;;4116969;28;20067;-57
2022/02/14 08:24:53;;;;;;;0.77;0.70;;;;;;;;;;4114246;28;20069;-53
2022/02/14 08:26:54;;;;;;;0.90;0.60;;;;;;;;;;4117835;28;20072;-55
2022/02/14 08:28:55;;;;;;;1.45;0.77;;;;;;;;;;4112485;28;20112;-60
2022/02/14 08:30:57;;;;;;;4.93;0.60;;;;;;;;;;4115226;28;20073;-60
2022/02/14 08:33:00;;;;;;;1.02;0.50;;;;;;;;;;4111543;28;20054;-60
2022/02/14 08:35:01;;;;;;;2.20;0.55;;;;;;;;;;4118749;28;20069;-56
2022/02/14 08:37:03;;;;;;;0.80;0.50;;;;;;;;;;4100260;28;20069;-57
2022/02/14 08:39:04;;;;;;;2.75;0.50;;;;;;;;;;4117353;28;20144;-56
2022/02/14 08:41:05;;;;;;;2.50;0.57;;;;;;;;;;4118441;28;20130;-52
2022/02/14 08:43:07;;;;;;;2.75;0.68;;;;;;;;;;4116525;28;20561;-56
2022/02/14 08:45:08;;;;;;;2.10;0.50;;;;;;;;;;4100683;28;20063;-54
2022/02/14 08:47:10;;;;;;;1.42;0.60;;;;;;;;;;4116811;28;20576;-59
2022/02/14 08:49:11;;;;;;;0.55;0.50;;;;;;;;;;4113783;28;20080;-56
2022/02/14 08:51:14;;;;;;;0.50;0.50;;;;;;;;;;4110558;28;20070;-57
2022/02/14 08:53:18;;;;;;;0.50;0.50;;;;;;;;;;4109524;28;20054;-54
2022/02/14 08:55:19;;;;;;;0.45;0.45;;;;;;;;;;4111443;28;20062;-57
2022/02/14 08:57:21;;;;;;;0.82;0.65;;;;;;;;;;4108027;28;20573;-58
2022/02/14 08:59:22;;;;;;;1.60;0.75;;;;;;;;;;4094985;28;20145;-56
2022/02/14 09:01:23;;;;;;;0.75;0.40;;;;;;;;;;4102335;28;22056;-53
2022/02/14 09:03:24;;;;;;;1.00;0.70;;;;;;;;;;4099644;28;20362;-56
2022/02/14 09:05:26;;;;;;;0.68;0.52;;;;;;;;;;4110656;28;20103;-50
2022/02/14 09:07:27;;;;;;;0.50;0.47;;;;;;;;;;4105651;28;20122;-51
2022/02/14 09:09:29;;;;;;;0.60;0.60;;;;;;;;;;4108413;28;20081;-57
2022/02/14 09:11:31;;;;;;;2.55;0.60;;;;;;;;;;4113972;28;20065;-53
2022/02/14 09:13:33;;;;;;;1.02;0.68;;;;;;;;;;4106619;28;20058;-52
2022/02/14 09:15:34;;;;;;;0.77;0.60;;;;;;;;;;4110930;28;20200;-55
2022/02/14 09:17:35;;;;;;;0.73;0.50;;;;;;;;;;4108966;28;20553;-54
2022/02/14 09:19:37;;;;;;;0.60;0.60;;;;;;;;;;4114888;28;20058;-56
2022/02/14 09:21:39;;;;;;;1.02;0.85;;;;;;;;;;4108600;28;20518;-55
2022/02/14 09:23:41;;;;;;;0.70;0.60;;;;;;;;;;4110421;28;21164;-57
2022/02/14 09:25:42;;;;;;;1.20;0.90;;;;;;;;;;4115647;28;20566;-53
2022/02/14 09:27:43;;;;;;;1.33;0.57;;;;;;;;;;4105500;28;20050;-52
2022/02/14 09:29:44;;;;;;;0.70;0.50;;;;;;;;;;4103492;28;20104;-52
2022/02/14 09:31:45;;;;;;;1.13;0.45;;;;;;;;;;4095857;28;20058;-56
2022/02/14 09:33:47;;;;;;;0.63;0.50;;;;;;;;;;4104017;28;20178;-55
2022/02/14 09:35:48;;;;;;;1.23;0.57;;;;;;;;;;4101642;28;20112;-57
2022/02/14 09:37:49;;;;;;;0.90;0.55;;;;;;;;;;4106129;28;20085;-54
2022/02/14 09:39:51;;;;;;;2.28;0.75;;;;;;;;;;4097563;28;20054;-56
2022/02/14 09:41:52;;;;;;;0.50;0.50;;;;;;;;;;4106006;28;20066;-54
2022/02/14 09:43:54;;;;;;;0.77;0.50;;;;;;;;;;4107090;28;20062;-55
2022/02/14 09:45:57;;;;;;;1.02;0.77;;;;;;;;;;4104877;28;20395;-55
2022/02/14 09:48:04;;;;;;;0.70;0.50;;;;;;;;;;4110311;28;20120;-57
2022/02/14 09:50:09;;;;;;;0.63;0.50;;;;;;;;;;4114954;28;20046;-57
2022/02/14 09:52:11;;;;;;;1.02;0.60;;;;;;;;;;4112740;28;20066;-57
2022/02/14 09:54:13;;;;;;;1.35;0.50;;;;;;;;;;4113007;28;20058;-57
2022/02/14 09:56:14;;;;;;;0.82;0.60;;;;;;;;;;4097899;28;20500;-56
2022/02/14 09:58:15;;;;;;;0.70;0.60;;;;;;;;;;4111672;28;20114;-53
2022/02/14 10:00:16;;;;;;;1.50;0.60;;;;;;;;;;4105494;28;20061;-54
2022/02/14 10:02:24;;;;;;;2.00;1.10;;;;;;;;;;4105585;28;20506;-60
2022/02/14 10:04:25;;;;;;;1.42;0.60;;;;;;;;;;4114717;28;20172;-57
2022/02/14 10:06:27;;;;;;;1.40;0.50;;;;;;;;;;4109047;28;20061;-59
2022/02/14 10:08:35;;;;;;;1.48;0.70;;;;;;;;;;4106497;28;20054;-59
2022/02/14 10:10:37;;;;;;;2.45;0.60;;;;;;;;;;4106536;28;20058;-58
2022/02/14 10:12:41;;;;;;;2.13;0.63;;;;;;;;;;4106897;28;20050;-61
2022/02/14 10:14:42;;;;;;;1.40;0.70;;;;;;;;;;4100123;28;20184;-57
2022/02/14 10:17:22;;;;;;;0.50;0.50;;;;;;;;;;4107536;28;20098;-58
2022/02/14 10:19:23;;;;;;;0.43;0.40;;;;;;;;;;4110249;28;20142;-59
2022/02/14 10:21:27;;;;;;;2.35;0.80;;;;;;;;;;4111247;28;20124;-57
2022/02/14 10:23:28;;;;;;;1.00;0.70;;;;;;;;;;4107289;28;20057;-56
2022/02/14 10:25:31;;;;;;;0.85;0.47;;;;;;;;;;4107732;28;20152;-56
2022/02/14 10:27:34;;;;;;;1.15;0.68;;;;;;;;;;4106770;28;20062;-57
2022/02/14 10:29:35;;;;;;;3.97;0.70;;;;;;;;;;4091693;28;20063;-56
2022/02/14 10:31:41;;;;;;;1.67;0.50;;;;;;;;;;4104739;28;20054;-61
2022/02/14 10:33:56;;;;;;;1.75;0.50;;;;;;;;;;4098218;28;20050;-60
2022/02/14 10:35:57;;;;;;;1.05;0.60;;;;;;;;;;4123192;28;20104;-56
2022/02/14 10:38:03;;;;;;;1.00;0.50;;;;;;;;;;4108687;28;20050;-52
2022/02/14 10:40:04;;;;;;;0.98;0.60;;;;;;;;;;4110471;28;20493;-60
2022/02/14 10:42:08;;;;;;;1.48;0.60;;;;;;;;;;4109868;28;20453;-59
2022/02/14 10:46:40;;;;;;;1.98;0.70;;;;;;;;;;4103710;28;20070;-56
2022/02/14 10:48:41;;;;;;;2.65;0.80;;;;;;;;;;4093526;28;20628;-56
2022/02/14 10:50:43;;;;;;;1.65;0.45;;;;;;;;;;4114019;28;20399;-52
2022/02/14 10:52:53;;;;;;;1.30;0.57;;;;;;;;;;4109157;28;20058;-56
2022/02/14 10:54:54;;;;;;;0.50;0.47;;;;;;;;;;4115908;28;20057;-52
2022/02/14 10:56:55;;;;;;;0.60;0.40;;;;;;;;;;4113338;28;20143;-60
2022/02/14 10:59:11;;;;;;;0.85;0.70;;;;;;;;;;4115497;28;20062;-58
2022/02/14 11:01:13;;;;;;;1.30;0.70;;;;;;;;;;4111434;28;20062;-55
2022/02/14 11:03:14;;;;;;;0.93;0.52;;;;;;;;;;4107651;28;20248;-56
2022/02/14 11:05:17;;;;;;;0.95;0.75;;;;;;;;;;4110974;28;20120;-54
2022/02/14 11:07:19;;;;;;;1.33;0.88;;;;;;;;;;4112237;28;20127;-54
2022/02/14 11:09:21;;;;;;;1.02;0.55;;;;;;;;;;4100054;28;20336;-58
2022/02/14 11:11:22;;;;;;;2.40;0.50;;;;;;;;;;4119228;28;20077;-56
2022/02/14 11:13:25;;;;;;;0.85;0.50;;;;;;;;;;4122763;28;20057;-56
2022/02/14 11:15:30;;;;;;;0.90;0.60;;;;;;;;;;4120049;28;20407;-54
2022/02/14 11:17:33;;;;;;;0.88;0.55;;;;;;;;;;4121674;28;20073;-52
2022/02/14 11:19:35;;;;;;;1.15;0.70;;;;;;;;;;4124552;28;20421;-52
2022/02/14 11:21:37;;;;;;;0.85;0.65;;;;;;;;;;4119834;28;20058;-55
2022/02/14 11:23:42;;;;;;;1.90;0.55;;;;;;;;;;4126520;28;20550;-53
2022/02/14 11:25:48;;;;;;;0.50;0.50;;;;;;;;;;4122600;28;20420;-51
2022/02/14 11:27:59;;;;;;;1.90;0.80;;;;;;;;;;4112921;28;20080;-55
2022/02/14 11:30:05;;;;;;;0.80;0.55;;;;;;;;;;4072354;29;20107;-53
2022/02/14 11:32:26;;;;;;;1.50;0.73;;;;;;;;;;4112958;28;20077;-57
2022/02/14 11:34:57;;;;;;;0.50;0.50;;;;;;;;;;4112168;28;20408;-55
2022/02/14 11:36:59;;;;;;;3.25;0.65;;;;;;;;;;4110426;28;20848;-57
2022/02/14 11:39:04;;;;;;;3.35;0.73;;;;;;;;;;4124786;28;20435;-51
2022/02/14 11:41:32;;;;;;;0.70;0.45;;;;;;;;;;4121546;28;20066;-55
2022/02/14 11:43:37;;;;;;;1.85;0.70;;;;;;;;;;4120606;28;20054;-52
2022/02/14 11:45:40;;;;;;;0.95;0.65;;;;;;;;;;4124814;28;20156;-53
2022/02/14 11:47:41;;;;;;;0.77;0.77;;;;;;;;;;4115893;28;20065;-54
2022/02/14 11:49:49;;;;;;;1.90;0.70;;;;;;;;;;4117662;28;20105;-52
2022/02/14 11:51:58;;;;;;;0.75;0.60;;;;;;;;;;4114922;28;20127;-56
2022/02/14 11:54:03;;;;;;;0.77;0.55;;;;;;;;;;4108783;28;20089;-52
2022/02/14 11:56:39;;;;;;;1.27;0.60;;;;;;;;;;4117572;28;20058;-58
2022/02/14 11:59:01;;;;;;;1.52;0.60;;;;;;;;;;4101491;28;20066;-51
2022/02/14 12:01:06;;;;;;;2.10;0.50;;;;;;;;;;4090677;28;20949;-55
2022/02/14 12:03:10;;;;;;;1.90;0.80;;;;;;;;;;4102825;28;20055;-55
2022/02/14 12:05:47;;;;;;;1.02;0.65;;;;;;;;;;4106910;28;20059;-54
2022/02/14 12:07:54;;;;;;;1.88;0.65;;;;;;;;;;4111570;28;20063;-55
2022/02/14 12:09:58;;;;;;;1.50;0.82;;;;;;;;;;4111387;28;20058;-53
2022/02/14 12:11:59;;;;;;;1.10;0.63;;;;;;;;;;4114719;28;20117;-55
2022/02/14 12:14:00;;;;;;;0.73;0.60;;;;;;;;;;4113235;28;20093;-56
2022/02/14 12:20:34;;;;;;;1.75;0.68;;;;;;;;;;4113859;28;20144;-55
2022/02/14 12:22:46;;;;;;;4.35;0.50;;;;;;;;;;4111766;28;20125;-55
2022/02/14 12:24:52;;;;;;;1.40;0.70;;;;;;;;;;4109155;28;20057;-56